Aiguafreda





Hora UTC 07:00
Temperatura 0.9 ºC
Sòl 15 cm -0.1 ºC
Humitat 97.7 %
Pressió 999.2 hPa
Pluja 0.0 mm
Velocitat vent 0.0 km/h
Direcció vent NNE
Radiació solar 0.0 W/m²

Dades diàries 2019-11-15



Hora UTC (hivern +1h; estiu +2h)
Temperatura (ºC) Humitat (%) Pressió (hPa) Velocitat vent (km/h) Precipitació (mm) Radiació solar (W/m²)
Hora UTC Aire Sòl 15 cm Humitat Pressió Vel. Dir. Vel. Max Dir. Intent. màx 5 min. Rad. Sol.
00:05 1.0 -0.3 97.1 998.2 0.0 NNE 0.0 N 0.0 0.0
00:10 0.9 -0.3 97.1 998.3 0.0 NNE 0.0 N 0.0 0.0
00:15 0.8 -0.4 97.1 998.4 0.0 NNE 0.0 N 0.0 0.0
00:20 0.8 -0.4 97.2 998.3 0.0 NNE 0.0 N 0.0 0.0
00:25 0.8 -0.4 97.2 998.4 0.0 NNE 0.0 N 0.0 0.0
00:30 0.7 -0.5 97.1 998.4 0.0 NNE 0.0 N 0.0 0.0
00:35 0.7 -0.5 97.1 998.4 0.0 NNE 0.0 ENE 0.0 0.0
00:40 0.7 -0.5 97.3 998.4 0.0 NNE 0.0 N 0.0 0.0
00:45 0.7 -0.5 97.3 998.2 0.0 NNE 0.0 NW 0.0 0.0
00:50 0.6 -0.6 97.2 998.3 0.0 NNE 0.0 NW 0.0 0.0
00:55 0.6 -0.6 97.3 998.2 0.0 NNE 0.0 N 0.0 0.0
01:00 0.6 -0.5 97.4 998.2 0.0 NNE 0.0 N 0.0 0.0
01:05 0.6 -0.4 97.3 998.3 0.0 NNE 0.0 N 0.0 0.0
01:10 0.6 -0.5 97.3 998.3 0.0 NNE 0.0 W 0.0 0.0
01:15 0.6 -0.5 97.4 998.2 0.0 NNE 0.0 NW 0.0 0.0
01:20 0.6 -0.4 97.4 998.3 0.0 NNE 0.0 NE 0.0 0.0
01:25 0.6 -0.5 97.4 998.4 0.0 NNE 0.0 S 0.0 0.0
01:30 0.5 -0.5 97.4 998.4 0.0 NNE 0.0 S 0.0 0.0
01:35 0.6 -0.4 97.4 998.5 0.0 NNE 0.0 NW 0.0 0.0
01:40 0.6 -0.4 97.4 998.6 0.8 SE 6.1 SSE 0.0 0.0
01:45 0.6 -0.3 97.4 998.5 0.0 NNE 0.0 NNW 0.0 0.0
01:50 0.6 -0.2 97.4 998.4 0.7 WNW 6.1 W 0.0 0.0
01:55 0.6 -0.3 97.3 998.4 0.0 NE 3.4 ENE 0.0 0.0
02:00 0.5 -0.3 97.4 998.4 0.0 NNE 0.0 E 0.0 0.0
02:05 0.5 -0.4 97.3 998.4 0.0 NNE 0.0 S 0.0 0.0
02:10 0.5 -0.4 97.4 998.4 0.8 NE 6.1 ENE 0.0 0.0
02:15 0.6 -0.3 97.5 998.3 0.4 NE 6.1 NNE 0.0 0.0
02:20 0.6 -0.3 97.5 998.3 0.2 SW 3.4 WSW 0.0 0.0
02:25 0.6 -0.3 97.4 998.3 0.3 S 6.1 S 0.0 0.0
02:30 0.7 -0.2 97.5 998.3 1.1 SSE 6.1 SSE 0.0 0.0
02:35 0.7 -0.3 97.5 998.4 0.0 NNE 0.0 SE 0.0 0.0
02:40 0.7 -0.3 97.4 998.4 0.0 WSW 3.4 WSW 0.0 0.0
02:45 0.7 -0.2 97.4 998.5 0.0 NNE 0.0 SW 0.0 0.0
02:50 0.7 -0.2 97.4 998.5 0.0 NNE 0.0 SSE 0.0 0.0
02:55 0.7 -0.2 97.4 998.5 1.1 SE 6.1 SE 0.0 0.0
03:00 0.8 -0.1 97.5 998.4 0.0 NNE 0.0 E 0.0 0.0
03:05 0.8 -0.1 97.5 998.4 0.0 NNE 0.0 NNE 0.0 0.0
03:10 0.9 0.0 97.5 998.4 0.3 WNW 6.1 WNW 0.0 0.0
03:15 0.9 0.1 97.6 998.4 0.0 NNE 0.0 W 0.0 0.0
03:20 1.0 0.1 97.6 998.5 0.0 NNE 0.0 NNW 0.0 0.0
03:25 1.1 0.2 97.6 998.5 0.0 NNE 0.0 SE 0.0 0.0
03:30 1.0 0.2 97.4 998.5 0.0 NNE 0.0 SE 0.0 0.0
03:35 1.0 0.2 97.4 998.5 0.0 NNE 0.0 S 0.0 0.0
03:40 1.1 0.2 97.5 998.6 0.0 NNE 0.0 SSW 0.0 0.0
03:45 1.1 0.3 97.5 998.5 0.0 NNE 3.4 NNE 0.0 0.0
03:50 1.2 0.4 97.5 998.6 0.0 NNE 0.0 SE 0.0 0.0
03:55 1.3 0.5 97.5 998.6 0.0 NNE 0.0 WNW 0.0 0.0
04:00 1.3 0.5 97.5 998.5 0.0 NNE 0.0 WNW 0.0 0.0
04:05 1.4 0.6 97.5 998.5 0.1 ENE 3.4 ENE 0.0 0.0
04:10 1.5 0.7 97.7 998.4 1.0 NNE 6.1 NE 0.0 0.0
04:15 1.7 0.8 97.7 998.4 1.4 NE 8.8 NE 0.0 0.0
04:20 1.7 0.8 97.5 998.5 0.1 NE 3.4 NE 0.0 0.0
04:25 1.6 0.7 97.4 998.4 0.0 NNE 0.0 NE 0.0 0.0
04:30 1.6 0.6 97.3 998.5 0.0 NNE 0.0 SSE 0.0 0.0
04:35 1.5 0.5 97.3 998.5 0.0 NNE 0.0 SSE 0.0 0.0
04:40 1.5 0.3 97.2 998.4 0.0 NNE 0.0 SSE 0.0 0.0
04:45 1.4 0.2 97.2 998.5 0.0 NNE 0.0 WSW 0.0 0.0
04:50 1.3 0.1 97.3 998.6 0.0 NNE 0.0 WSW 0.0 0.0
04:55 1.3 0.0 97.2 998.5 0.0 NNE 0.0 W 0.0 0.0
05:00 1.2 0.0 97.3 998.4 0.1 NE 3.4 N 0.0 0.0
05:05 1.2 0.0 97.4 998.5 0.0 NNE 0.0 ENE 0.0 0.0
05:10 1.2 0.1 97.4 998.4 0.0 NNE 0.0 SSE 0.0 0.0
05:15 1.2 -0.1 97.3 998.4 0.0 NNE 0.0 ESE 0.0 0.0
05:20 1.2 -0.1 97.4 998.5 0.0 NNE 0.0 NNW 0.0 0.0
05:25 1.2 0.1 97.4 998.5 0.0 NNE 0.0 WNW 0.0 0.0
05:30 1.2 0.0 97.2 998.6 0.0 NNE 0.0 SSW 0.0 0.0
05:35 1.1 -0.1 97.2 998.6 0.0 NNE 0.0 WSW 0.0 0.0
05:40 1.0 -0.3 97.1 998.6 0.0 NNE 0.0 WSW 0.0 0.0
05:45 0.9 -0.4 97.1 998.7 0.0 NNE 0.0 SSW 0.0 0.0
05:50 0.8 -0.5 97.1 998.7 0.0 NNE 0.0 SSE 0.0 0.0
05:55 0.8 -0.5 97.2 998.7 0.0 NNE 0.0 SSE 0.0 0.0
06:00 0.7 -0.6 97.2 998.8 0.0 NNE 0.0 SSE 0.0 0.0
06:05 0.7 -0.6 97.3 998.7 0.0 NNE 0.0 SSE 0.0 0.0
06:10 0.7 -0.5 97.4 999.0 0.0 NNE 0.0 SSE 0.0 0.0
06:15 0.7 -0.5 97.3 999.1 0.3 SSE 3.4 SSE 0.0 0.0
06:20 0.6 -0.5 97.3 999.0 0.0 NNE 0.0 SE 0.0 0.0
06:25 0.6 -0.5 97.3 999.0 0.0 NNE 0.0 SSE 0.0 0.0
06:30 0.6 -0.5 97.3 999.2 0.0 NNE 0.0 SSE 0.0 0.0
06:35 0.6 -0.6 97.3 999.1 0.0 NNE 0.0 ESE 0.0 0.0
06:40 0.6 -0.6 97.4 999.1 0.0 NNE 0.0 ESE 0.0 0.0
06:45 0.7 -0.6 97.5 999.1 0.0 NNE 0.0 ESE 0.0 0.0
06:50 0.7 -0.5 97.5 999.2 0.0 NNE 0.0 ESE 0.0 0.0
06:55 0.8 -0.3 97.6 999.2 0.0 NNE 0.0 ESE 0.0 0.0
07:00 0.9 -0.1 97.7 999.2 0.0 NNE 0.0 NE 0.0 0.0
Màxima 1.7 0.8 97.7 999.2 1.4 NE 8.8 NE 0.0 0.0
Mínima 0.5 -0.6 97.1 998.2
Total 0.0